Time;durP1;ratioP1;P1;durP2;ratioP2;P2;SDS_P1;SDS_P2;PMS_P1;PMS_P2;Temp;Humidity;BMP_temperature;BMP_pressure;BME280_temperature;BME280_humidity;BME280_pressure;Samples;Min_cycle;Max_cycle;Signal;HPM_P1;HPM_P2
2023/09/07 00:01:31;;;;;;;6.70;2.40;;;19.60;99.90;;;;;;5063255;28;20048;-88
2023/09/07 00:03:56;;;;;;;6.15;2.20;;;19.60;99.90;;;;;;5062451;28;20048;-88
2023/09/07 00:06:22;;;;;;;6.90;2.55;;;19.60;99.90;;;;;;5074453;28;20059;-88
2023/09/07 00:08:48;;;;;;;6.90;2.50;;;19.50;99.90;;;;;;5079121;28;20041;-88
2023/09/07 00:11:14;;;;;;;6.30;2.42;;;19.40;99.90;;;;;;5060661;28;20051;-88
2023/09/07 00:13:39;;;;;;;8.52;2.92;;;19.40;99.90;;;;;;5075037;28;20543;-88
2023/09/07 00:16:05;;;;;;;6.78;2.50;;;19.30;99.90;;;;;;5049440;28;20497;-88
2023/09/07 00:18:32;;;;;;;8.00;2.75;;;19.30;99.90;;;;;;5074169;28;20067;-88
2023/09/07 00:20:59;;;;;;;6.75;2.28;;;19.20;99.90;;;;;;5051592;28;20044;-88
2023/09/07 00:23:25;;;;;;;6.80;2.20;;;19.20;99.90;;;;;;5064943;28;20056;-88
2023/09/07 00:25:51;;;;;;;9.13;2.60;;;19.10;99.90;;;;;;5038691;28;20105;-88
2023/09/07 00:28:17;;;;;;;8.02;2.60;;;19.10;99.90;;;;;;5055859;28;20056;-88
2023/09/07 00:30:42;;;;;;;7.72;2.53;;;19.00;99.90;;;;;;5034030;28;20052;-89
2023/09/07 00:33:08;;;;;;;7.00;2.60;;;19.00;99.90;;;;;;5087749;28;20039;-88
2023/09/07 00:35:35;;;;;;;8.20;2.80;;;19.00;99.90;;;;;;5073443;28;20098;-88
2023/09/07 00:38:00;;;;;;;6.57;2.38;;;18.90;99.90;;;;;;5079540;28;20082;-88
2023/09/07 00:40:26;;;;;;;7.45;2.65;;;18.80;99.90;;;;;;5070425;28;20067;-88
2023/09/07 00:42:53;;;;;;;7.30;2.50;;;18.80;99.90;;;;;;5069229;28;20051;-88
2023/09/07 00:45:19;;;;;;;7.22;2.60;;;18.70;99.90;;;;;;5070689;28;20043;-88
2023/09/07 00:47:45;;;;;;;6.35;2.28;;;18.70;99.90;;;;;;5067382;28;20043;-88
2023/09/07 00:50:15;;;;;;;6.50;2.50;;;18.70;99.90;;;;;;5085831;28;20044;-87
2023/09/07 00:52:42;;;;;;;7.22;2.50;;;18.60;99.90;;;;;;5084977;28;20036;-88
2023/09/07 00:55:09;;;;;;;6.28;2.58;;;18.60;99.90;;;;;;5051277;28;20040;-88
2023/09/07 00:57:36;;;;;;;7.95;2.70;;;18.50;99.90;;;;;;5028649;28;20033;-87
2023/09/07 01:00:05;;;;;;;6.97;2.75;;;18.50;99.90;;;;;;5078173;28;20028;-88
2023/09/07 01:02:31;;;;;;;7.63;3.03;;;18.40;99.90;;;;;;5082112;28;20102;-88
2023/09/07 01:04:57;;;;;;;7.93;2.80;;;18.40;99.90;;;;;;5047718;28;20089;-88
2023/09/07 01:07:35;;;;;;;7.00;2.72;;;18.40;99.90;;;;;;5045850;28;20529;-88
2023/09/07 01:10:02;;;;;;;7.97;2.90;;;18.30;99.90;;;;;;5064986;28;20036;-88
2023/09/07 01:12:28;;;;;;;7.70;2.60;;;18.30;99.90;;;;;;5067437;28;20074;-88
2023/09/07 01:14:54;;;;;;;7.30;2.85;;;18.30;99.90;;;;;;5068344;28;20075;-87
2023/09/07 01:17:21;;;;;;;7.50;2.70;;;18.40;99.90;;;;;;5065142;28;20063;-87
2023/09/07 01:19:49;;;;;;;6.70;2.60;;;18.20;99.90;;;;;;5084262;28;20044;-87
2023/09/07 01:22:22;;;;;;;8.00;2.70;;;18.20;99.90;;;;;;5064646;28;20059;-88
2023/09/07 01:24:50;;;;;;;8.05;2.78;;;18.20;99.90;;;;;;5060223;28;20528;-88
2023/09/07 01:27:16;;;;;;;7.70;2.92;;;18.10;99.90;;;;;;5069663;28;20378;-88
2023/09/07 01:29:42;;;;;;;8.50;3.47;;;18.10;99.90;;;;;;5071445;28;20048;-88
2023/09/07 01:32:09;;;;;;;7.20;2.83;;;18.10;99.90;;;;;;5066140;28;20052;-87
2023/09/07 01:34:36;;;;;;;7.45;3.03;;;18.00;99.90;;;;;;5074864;28;20497;-88
2023/09/07 01:37:01;;;;;;;7.85;3.30;;;18.00;99.90;;;;;;5033713;28;20055;-87
2023/09/07 01:39:27;;;;;;;7.85;3.05;;;18.00;99.90;;;;;;5068016;28;20055;-87
2023/09/07 01:41:53;;;;;;;7.95;3.13;;;17.90;99.90;;;;;;5083196;28;20210;-88
2023/09/07 01:44:19;;;;;;;9.63;3.42;;;17.90;99.90;;;;;;5066760;28;20423;-88
2023/09/07 01:46:44;;;;;;;7.72;3.30;;;17.90;99.90;;;;;;5046329;28;20517;-87
2023/09/07 01:49:10;;;;;;;7.95;3.33;;;17.80;99.90;;;;;;5056846;28;20056;-87
2023/09/07 01:51:36;;;;;;;9.75;3.55;;;17.80;99.90;;;;;;5057629;28;20047;-88
2023/09/07 01:54:02;;;;;;;8.52;3.33;;;17.80;99.90;;;;;;5065336;28;20044;-88
2023/09/07 01:56:28;;;;;;;7.68;3.17;;;17.80;99.90;;;;;;5070731;28;20055;-87
2023/09/07 01:58:53;;;;;;;8.63;3.13;;;17.80;99.90;;;;;;5079570;28;20040;-87
2023/09/07 02:01:24;;;;;;;7.53;3.17;;;17.70;99.90;;;;;;5071236;28;20621;-87
2023/09/07 02:03:50;;;;;;;7.90;3.50;;;17.70;99.90;;;;;;5064446;28;20036;-87
2023/09/07 02:06:16;;;;;;;8.13;3.50;;;17.70;99.90;;;;;;5067909;28;20070;-88
2023/09/07 02:08:41;;;;;;;8.63;3.47;;;17.70;99.90;;;;;;5067751;28;20493;-87
2023/09/07 02:11:07;;;;;;;10.13;3.80;;;17.70;99.90;;;;;;5063971;28;20097;-87
2023/09/07 02:13:33;;;;;;;8.20;3.65;;;17.60;99.90;;;;;;5054011;28;20144;-88
2023/09/07 02:16:02;;;;;;;8.88;3.40;;;17.60;99.90;;;;;;5076555;28;20036;-87
2023/09/07 02:18:28;;;;;;;8.48;3.38;;;17.60;99.90;;;;;;5061193;28;20044;-87
2023/09/07 02:20:54;;;;;;;7.25;3.17;;;17.60;99.90;;;;;;5051213;28;20490;-87
2023/09/07 02:23:19;;;;;;;8.45;3.50;;;17.60;99.90;;;;;;5059828;28;20045;-87
2023/09/07 02:25:45;;;;;;;7.85;3.22;;;17.60;99.90;;;;;;5083400;28;20075;-88
2023/09/07 02:28:11;;;;;;;7.22;3.00;;;17.50;99.90;;;;;;5056848;28;20473;-87
2023/09/07 02:30:36;;;;;;;8.80;3.42;;;17.50;99.90;;;;;;5033573;28;20102;-87
2023/09/07 02:33:04;;;;;;;7.78;3.35;;;17.50;99.90;;;;;;5067302;28;20048;-88
2023/09/07 02:35:31;;;;;;;7.47;3.15;;;17.50;99.90;;;;;;5071228;28;20052;-87
2023/09/07 02:37:56;;;;;;;8.60;3.75;;;17.40;99.90;;;;;;5052981;28;20048;-87
2023/09/07 02:40:23;;;;;;;8.00;3.17;;;17.40;99.90;;;;;;5066924;28;20047;-87
2023/09/07 02:42:49;;;;;;;8.00;3.47;;;17.40;99.90;;;;;;5071917;28;20381;-87
2023/09/07 02:45:14;;;;;;;8.73;3.30;;;17.30;99.90;;;;;;5065090;28;20066;-87
2023/09/07 02:47:40;;;;;;;9.48;3.25;;;17.30;99.90;;;;;;5070293;28;20109;-87
2023/09/07 02:50:06;;;;;;;8.52;3.55;;;17.30;99.90;;;;;;5075322;28;20093;-87
2023/09/07 02:52:32;;;;;;;10.20;3.65;;;17.30;99.90;;;;;;5050954;28;20401;-87
2023/09/07 02:54:57;;;;;;;8.10;3.70;;;17.30;99.90;;;;;;5071977;28;20036;-88
2023/09/07 02:57:23;;;;;;;8.60;3.42;;;17.30;99.90;;;;;;5083970;28;20032;-87
2023/09/07 02:59:49;;;;;;;9.57;3.63;;;17.30;99.90;;;;;;5069865;28;20052;-87
2023/09/07 03:02:14;;;;;;;9.10;3.85;;;17.30;99.90;;;;;;5088191;28;20037;-87
2023/09/07 03:04:40;;;;;;;9.43;3.63;;;17.20;99.90;;;;;;5070575;28;20493;-87
2023/09/07 03:07:06;;;;;;;8.20;3.60;;;17.20;99.90;;;;;;5070397;28;20401;-87
2023/09/07 03:09:31;;;;;;;8.02;3.53;;;17.20;99.90;;;;;;5073506;28;20050;-87
2023/09/07 03:11:57;;;;;;;7.80;3.63;;;17.20;99.90;;;;;;5053703;28;20044;-87
2023/09/07 03:14:24;;;;;;;7.95;3.75;;;17.10;99.90;;;;;;5081187;28;20032;-87
2023/09/07 03:16:50;;;;;;;8.50;3.85;;;17.10;99.90;;;;;;5075682;28;20105;-87
2023/09/07 03:19:16;;;;;;;7.88;3.60;;;17.10;99.90;;;;;;5069644;28;20040;-87
2023/09/07 03:21:42;;;;;;;8.45;3.70;;;17.10;99.90;;;;;;5051722;28;20051;-87
2023/09/07 03:24:08;;;;;;;8.20;3.90;;;17.10;99.90;;;;;;5072784;28;20097;-87
2023/09/07 03:26:34;;;;;;;8.38;3.90;;;17.10;99.90;;;;;;5091014;28;20036;-87
2023/09/07 03:29:00;;;;;;;7.97;3.80;;;17.00;99.90;;;;;;5064140;28;20108;-87
2023/09/07 03:31:26;;;;;;;9.65;4.05;;;17.00;99.90;;;;;;5068731;28;20436;-87
2023/09/07 03:33:51;;;;;;;8.93;4.50;;;17.00;99.90;;;;;;5039773;28;20043;-87
2023/09/07 03:36:17;;;;;;;9.25;4.15;;;16.90;99.90;;;;;;5039818;28;20044;-87
2023/09/07 03:38:43;;;;;;;8.65;3.90;;;16.90;99.90;;;;;;5073118;28;20051;-87
2023/09/07 03:41:09;;;;;;;8.38;3.85;;;16.90;99.90;;;;;;5069824;28;20051;-87
2023/09/07 03:43:34;;;;;;;8.93;4.00;;;16.90;99.90;;;;;;5070772;28;20110;-87
2023/09/07 03:46:00;;;;;;;8.43;4.10;;;16.80;99.90;;;;;;5068225;28;20048;-87
2023/09/07 03:48:26;;;;;;;9.68;4.20;;;16.90;99.90;;;;;;5060503;28;20079;-87
2023/09/07 03:50:52;;;;;;;9.85;4.07;;;16.80;99.90;;;;;;5063272;28;20436;-87
2023/09/07 03:53:17;;;;;;;9.60;4.38;;;16.80;99.90;;;;;;5085717;28;20063;-87
2023/09/07 03:55:44;;;;;;;13.45;4.35;;;16.80;99.90;;;;;;5072043;28;20062;-87
2023/09/07 03:58:11;;;;;;;8.88;4.20;;;16.80;99.90;;;;;;5072779;28;20540;-87
2023/09/07 04:00:41;;;;;;;8.70;3.95;;;16.80;99.90;;;;;;5069267;28;20132;-87
2023/09/07 04:03:10;;;;;;;9.00;4.18;;;16.70;99.90;;;;;;5052485;28;20054;-87
2023/09/07 04:05:38;;;;;;;10.63;4.35;;;16.80;99.90;;;;;;5082624;28;20119;-87
2023/09/07 04:08:05;;;;;;;9.38;4.07;;;16.70;99.90;;;;;;5068909;28;20067;-87
2023/09/07 04:10:30;;;;;;;9.95;4.18;;;16.70;99.90;;;;;;5039528;28;20101;-87
2023/09/07 04:12:56;;;;;;;8.63;3.88;;;16.70;99.90;;;;;;5068091;28;20040;-87
2023/09/07 04:15:22;;;;;;;8.27;4.03;;;16.70;99.90;;;;;;5070282;28;20054;-87
2023/09/07 04:17:49;;;;;;;8.85;4.20;;;16.60;99.90;;;;;;5068122;28;20044;-87
2023/09/07 04:20:15;;;;;;;8.43;4.00;;;16.60;99.90;;;;;;5071074;28;20044;-87
2023/09/07 04:22:41;;;;;;;9.63;4.47;;;16.60;99.90;;;;;;5072786;28;20396;-87
2023/09/07 04:25:07;;;;;;;9.27;4.40;;;16.60;99.90;;;;;;5065743;28;20044;-87
2023/09/07 04:27:32;;;;;;;10.07;4.30;;;16.60;99.90;;;;;;5068267;28;20047;-87
2023/09/07 04:29:58;;;;;;;9.20;4.07;;;16.60;99.90;;;;;;5058140;28;20048;-87
2023/09/07 04:32:24;;;;;;;9.10;4.15;;;16.60;99.90;;;;;;5060701;28;20433;-87
2023/09/07 04:34:55;;;;;;;8.80;4.25;;;16.50;99.90;;;;;;5062216;28;20040;-87
2023/09/07 04:37:21;;;;;;;11.10;4.50;;;16.50;99.90;;;;;;5069699;28;20083;-87
2023/09/07 04:39:50;;;;;;;9.13;4.32;;;16.50;99.90;;;;;;5067975;28;20075;-87
2023/09/07 04:42:16;;;;;;;11.15;4.70;;;16.50;99.90;;;;;;5064772;28;20066;-87
2023/09/07 04:44:42;;;;;;;8.45;3.97;;;16.50;99.90;;;;;;5070714;28;20028;-87
2023/09/07 04:47:07;;;;;;;9.00;4.10;;;16.50;99.90;;;;;;5061520;28;20071;-87
2023/09/07 04:49:33;;;;;;;10.02;4.20;;;16.40;99.90;;;;;;5071764;28;20049;-87
2023/09/07 04:51:59;;;;;;;8.98;4.35;;;16.50;99.90;;;;;;5051944;28;20083;-86
2023/09/07 04:54:25;;;;;;;9.88;4.30;;;16.40;99.90;;;;;;5066963;28;20501;-87
2023/09/07 04:56:50;;;;;;;8.55;4.05;;;16.40;99.90;;;;;;5062985;28;20048;-87
2023/09/07 04:59:16;;;;;;;9.15;4.13;;;16.40;99.90;;;;;;5059292;28;20048;-88
2023/09/07 05:01:42;;;;;;;12.15;4.68;;;16.40;99.90;;;;;;5064052;28;20068;-86
2023/09/07 05:04:07;;;;;;;10.18;4.40;;;16.40;99.90;;;;;;5061433;28;20567;-86
2023/09/07 05:06:36;;;;;;;9.77;4.05;;;16.40;99.90;;;;;;5065521;28;20397;-86
2023/09/07 05:09:03;;;;;;;9.90;4.70;;;16.40;99.90;;;;;;5059050;28;20044;-87
2023/09/07 05:11:29;;;;;;;9.02;4.45;;;16.40;99.90;;;;;;5049436;28;20048;-87
2023/09/07 05:13:55;;;;;;;8.73;4.03;;;16.40;99.90;;;;;;5047336;28;20048;-87
2023/09/07 05:16:20;;;;;;;9.20;4.32;;;16.40;99.90;;;;;;5064043;28;20076;-87
2023/09/07 05:18:46;;;;;;;10.60;4.38;;;16.40;99.90;;;;;;5052744;28;20051;-86
2023/09/07 05:21:15;;;;;;;10.00;4.15;;;16.50;99.90;;;;;;5056260;28;20500;-87
2023/09/07 05:23:41;;;;;;;10.23;4.38;;;16.50;99.90;;;;;;5062226;28;20047;-87
2023/09/07 05:26:07;;;;;;;8.90;4.53;;;16.40;99.90;;;;;;5070805;28;20071;-87
2023/09/07 05:28:33;;;;;;;9.35;4.53;;;16.40;99.90;;;;;;5070735;28;20091;-87
2023/09/07 05:30:58;;;;;;;8.40;4.18;;;16.50;99.90;;;;;;5039915;28;20124;-87
2023/09/07 05:33:24;;;;;;;9.68;4.57;;;16.50;99.90;;;;;;5072337;28;20066;-86
2023/09/07 05:35:50;;;;;;;10.20;4.43;;;16.50;99.90;;;;;;5050759;28;20197;-86
2023/09/07 05:38:16;;;;;;;11.35;4.60;;;16.50;99.90;;;;;;5071542;28;20047;-87
2023/09/07 05:40:44;;;;;;;11.77;4.60;;;16.60;99.90;;;;;;5053085;28;20062;-86
2023/09/07 05:43:11;;;;;;;8.98;4.40;;;16.60;99.90;;;;;;5051810;28;20048;-86
2023/09/07 05:45:40;;;;;;;9.38;4.70;;;16.60;99.90;;;;;;5066652;28;20515;-87
2023/09/07 05:48:07;;;;;;;10.23;5.10;;;16.70;99.90;;;;;;5068232;28;20102;-87
2023/09/07 05:50:34;;;;;;;11.07;4.45;;;16.80;99.90;;;;;;5053454;28;20047;-86
2023/09/07 05:53:00;;;;;;;9.65;4.28;;;16.80;99.90;;;;;;5089695;28;20397;-87
2023/09/07 05:55:26;;;;;;;12.07;4.85;;;16.90;99.90;;;;;;5048845;28;20052;-86
2023/09/07 05:57:54;;;;;;;9.88;4.85;;;17.00;99.90;;;;;;5081137;28;20546;-87
2023/09/07 06:00:20;;;;;;;9.32;4.63;;;17.00;99.90;;;;;;5071839;28;20040;-87
2023/09/07 06:02:46;;;;;;;10.13;4.63;;;17.10;99.90;;;;;;5071867;28;20450;-87
2023/09/07 06:05:13;;;;;;;10.23;4.68;;;17.20;99.90;;;;;;5082726;28;20059;-87
2023/09/07 06:07:38;;;;;;;12.05;4.32;;;17.30;99.90;;;;;;5062685;28;20040;-87
2023/09/07 06:10:05;;;;;;;9.98;4.53;;;17.40;99.90;;;;;;5066853;28;20047;-86
2023/09/07 06:12:32;;;;;;;9.15;4.63;;;17.50;99.90;;;;;;5065875;28;20029;-87
2023/09/07 06:14:58;;;;;;;9.45;4.72;;;17.50;99.90;;;;;;5066796;28;20498;-86
2023/09/07 06:17:23;;;;;;;11.93;5.20;;;17.70;99.90;;;;;;5056808;28;20048;-86
2023/09/07 06:19:49;;;;;;;9.93;4.80;;;18.40;99.90;;;;;;5043984;28;20036;-85
2023/09/07 06:22:15;;;;;;;9.63;4.63;;;17.80;99.90;;;;;;5079067;28;20218;-86
2023/09/07 06:24:40;;;;;;;9.45;4.97;;;17.90;99.90;;;;;;5042895;28;20036;-86
2023/09/07 06:27:06;;;;;;;13.18;5.05;;;18.00;99.90;;;;;;5079174;28;20111;-87
2023/09/07 06:29:32;;;;;;;11.30;5.05;;;18.10;99.90;;;;;;5071930;28;20044;-86
2023/09/07 06:31:58;;;;;;;10.05;4.97;;;18.20;99.90;;;;;;5057601;28;20040;-86
2023/09/07 06:34:24;;;;;;;10.95;5.15;;;18.30;99.90;;;;;;5069732;28;20043;-87
2023/09/07 06:36:50;;;;;;;13.15;5.20;;;18.40;99.90;;;;;;5064072;28;20119;-86
2023/09/07 06:39:15;;;;;;;10.00;4.65;;;18.50;99.90;;;;;;5053058;28;20040;-86
2023/09/07 06:41:41;;;;;;;9.50;5.00;;;18.60;99.90;;;;;;5057404;28;20075;-87
2023/09/07 06:44:07;;;;;;;11.02;5.25;;;18.70;99.90;;;;;;5068518;28;20045;-86
2023/09/07 06:46:33;;;;;;;11.68;5.13;;;18.80;99.90;;;;;;5032348;28;20043;-86
2023/09/07 06:48:59;;;;;;;9.80;4.78;;;18.90;99.90;;;;;;5067019;28;20047;-86
2023/09/07 06:51:24;;;;;;;9.57;4.88;;;19.00;99.90;;;;;;5044900;28;20124;-88
2023/09/07 06:53:50;;;;;;;12.52;4.95;;;19.10;99.90;;;;;;5063556;28;20051;-87
2023/09/07 06:56:16;;;;;;;10.13;5.03;;;19.20;99.90;;;;;;5078097;28;20040;-87
2023/09/07 06:58:41;;;;;;;9.23;4.95;;;19.20;99.90;;;;;;5068286;28;20428;-87
2023/09/07 07:01:07;;;;;;;9.68;5.00;;;19.30;99.90;;;;;;5062663;28;20036;-88
2023/09/07 07:03:34;;;;;;;11.63;5.25;;;19.40;99.90;;;;;;5079694;28;20032;-86
2023/09/07 07:06:00;;;;;;;11.35;5.05;;;19.50;99.90;;;;;;5071108;28;20060;-86
2023/09/07 07:08:25;;;;;;;9.43;4.57;;;19.60;99.90;;;;;;5086032;28;20048;-86
2023/09/07 07:10:52;;;;;;;11.55;5.10;;;19.70;99.90;;;;;;5063346;28;20453;-87
2023/09/07 07:13:17;;;;;;;12.13;4.80;;;19.80;99.90;;;;;;5060495;28;20422;-86
2023/09/07 07:15:43;;;;;;;9.73;4.95;;;19.80;99.90;;;;;;5067603;28;20052;-86
2023/09/07 07:18:09;;;;;;;12.75;5.18;;;20.00;99.90;;;;;;5070989;28;20119;-86
2023/09/07 07:20:38;;;;;;;11.23;5.13;;;20.00;99.90;;;;;;5071225;28;20089;-86
2023/09/07 07:23:06;;;;;;;9.73;4.60;;;20.10;99.90;;;;;;5062957;28;20064;-86
2023/09/07 07:25:33;;;;;;;10.60;4.88;;;20.20;99.90;;;;;;5071477;28;20167;-86
2023/09/07 07:28:00;;;;;;;11.00;5.28;;;20.30;99.90;;;;;;5050172;28;20064;-86
2023/09/07 07:30:29;;;;;;;10.80;4.95;;;20.40;99.90;;;;;;5073473;28;20078;-87
2023/09/07 07:32:56;;;;;;;9.43;4.82;;;20.50;99.90;;;;;;5068496;28;20111;-87
2023/09/07 07:35:22;;;;;;;9.95;4.80;;;20.70;99.90;;;;;;5076791;28;20501;-87
2023/09/07 07:37:49;;;;;;;8.73;4.05;;;20.80;99.90;;;;;;5072567;28;20036;-86
2023/09/07 07:40:15;;;;;;;10.05;4.60;;;20.90;99.90;;;;;;5054525;28;20572;-86
2023/09/07 07:42:41;;;;;;;9.18;4.78;;;21.10;99.90;;;;;;5083420;28;20055;-86
2023/09/07 07:45:08;;;;;;;10.05;4.82;;;21.10;99.90;;;;;;5056015;28;20040;-87
2023/09/07 07:47:33;;;;;;;9.88;4.63;;;21.20;99.90;;;;;;5069858;28;20088;-87
2023/09/07 07:49:59;;;;;;;8.32;4.25;;;21.30;99.90;;;;;;5074126;28;20040;-86
2023/09/07 07:52:25;;;;;;;12.65;5.40;;;21.40;99.90;;;;;;5092092;28;20332;-87
2023/09/07 07:54:51;;;;;;;11.00;4.85;;;21.50;99.90;;;;;;5069922;28;20430;-86
2023/09/07 07:57:16;;;;;;;9.15;4.20;;;21.70;99.90;;;;;;5076882;28;20042;-86
2023/09/07 07:59:42;;;;;;;9.52;4.28;;;21.80;99.90;;;;;;5069674;28;20047;-86
2023/09/07 08:02:08;;;;;;;9.07;4.38;;;21.80;99.90;;;;;;5050227;28;20497;-85
2023/09/07 08:04:34;;;;;;;10.38;5.20;;;22.10;99.90;;;;;;5048073;28;20040;-87
2023/09/07 08:07:03;;;;;;;10.18;4.28;;;22.00;99.90;;;;;;5061296;28;20035;-87
2023/09/07 08:09:33;;;;;;;9.98;4.45;;;22.20;99.90;;;;;;5043957;28;20068;-88
2023/09/07 08:12:02;;;;;;;9.27;3.97;;;22.30;99.90;;;;;;5074243;28;20043;-87
2023/09/07 08:14:28;;;;;;;9.95;4.25;;;22.40;99.90;;;;;;5063545;28;20056;-87
2023/09/07 08:16:54;;;;;;;9.40;4.40;;;22.70;99.90;;;;;;5070326;28;20122;-87
2023/09/07 08:19:20;;;;;;;9.63;4.25;;;22.70;99.90;;;;;;5060948;28;20131;-87
2023/09/07 08:21:46;;;;;;;11.55;4.43;;;22.70;99.90;;;;;;5077576;28;20077;-86
2023/09/07 08:24:12;;;;;;;10.70;4.72;;;22.80;99.90;;;;;;5088182;28;20507;-87
2023/09/07 08:26:38;;;;;;;8.57;4.00;;;22.90;99.90;;;;;;5064084;28;20047;-87
2023/09/07 08:29:05;;;;;;;9.40;4.25;;;23.10;99.90;;;;;;5073493;28;20234;-86
2023/09/07 08:31:33;;;;;;;8.80;3.92;;;23.20;99.90;;;;;;5049133;28;20152;-87
2023/09/07 08:34:05;;;;;;;9.43;4.43;;;23.30;99.90;;;;;;5064020;28;20089;-87
2023/09/07 08:36:34;;;;;;;9.82;4.35;;;23.40;99.90;;;;;;5060045;28;20052;-88
2023/09/07 08:39:04;;;;;;;9.57;4.00;;;23.50;99.90;;;;;;5056988;28;20393;-87
2023/09/07 08:41:29;;;;;;;11.30;4.40;;;23.60;99.90;;;;;;5056445;28;20051;-87
2023/09/07 08:43:57;;;;;;;8.93;3.72;;;23.70;99.90;;;;;;5045569;28;20040;-87
2023/09/07 08:46:23;;;;;;;10.93;4.05;;;;;;;;;;5066358;28;20497;-88
2023/09/07 08:48:50;;;;;;;12.25;4.35;;;23.90;99.90;;;;;;5052665;28;20051;-88
2023/09/07 08:51:18;;;;;;;9.18;3.85;;;24.00;99.90;;;;;;5052864;28;20052;-87
2023/09/07 08:53:46;;;;;;;9.52;4.00;;;24.10;99.90;;;;;;5078014;28;20393;-88
2023/09/07 08:56:17;;;;;;;10.15;3.83;;;24.20;99.90;;;;;;5067795;28;20389;-88
2023/09/07 08:58:44;;;;;;;8.77;3.85;;;24.20;99.90;;;;;;5047640;28;20459;-87
2023/09/07 09:01:10;;;;;;;10.43;4.05;;;24.30;99.90;;;;;;5060776;28;20044;-86
2023/09/07 09:03:36;;;;;;;9.68;4.00;;;24.40;99.90;;;;;;5061398;28;20060;-87
2023/09/07 09:06:04;;;;;;;8.20;3.20;;;24.70;99.90;;;;;;5063452;28;20063;-87
2023/09/07 09:08:30;;;;;;;7.70;3.45;;;24.70;99.90;;;;;;5066800;28;20055;-86
2023/09/07 09:11:03;;;;;;;8.55;3.67;;;24.70;99.90;;;;;;5090869;28;20040;-86
2023/09/07 09:13:32;;;;;;;8.63;3.30;;;24.70;99.90;;;;;;5071117;28;20040;-87
2023/09/07 09:16:02;;;;;;;9.32;3.63;;;24.80;99.90;;;;;;5077134;28;20067;-86
2023/09/07 09:18:28;;;;;;;9.02;3.20;;;24.90;99.90;;;;;;5082497;28;20519;-87
2023/09/07 09:20:58;;;;;;;8.18;3.38;;;24.90;99.90;;;;;;5050730;28;20097;-87
2023/09/07 09:23:31;;;;;;;8.05;3.40;;;25.10;99.90;;;;;;5067526;28;20039;-86
2023/09/07 09:25:57;;;;;;;8.00;3.30;;;25.10;99.90;;;;;;5057034;28;20073;-88
2023/09/07 09:28:22;;;;;;;8.48;3.33;;;25.20;99.90;;;;;;5007287;28;20157;-87
2023/09/07 09:30:49;;;;;;;8.45;3.33;;;25.30;99.90;;;;;;5043292;28;20490;-87
2023/09/07 09:33:15;;;;;;;7.93;3.35;;;25.30;99.90;;;;;;5034103;28;20184;-87
2023/09/07 09:35:42;;;;;;;9.05;3.53;;;25.40;99.90;;;;;;5033966;28;20469;-87
2023/09/07 09:38:10;;;;;;;7.47;3.00;;;25.50;99.90;;;;;;5042311;28;20049;-87
2023/09/07 09:40:36;;;;;;;9.15;3.17;;;25.50;99.90;;;;;;5031020;28;20041;-87
2023/09/07 09:43:03;;;;;;;10.05;3.75;;;25.60;99.90;;;;;;5044398;28;20410;-87
2023/09/07 09:45:29;;;;;;;7.68;2.92;;;25.70;99.90;;;;;;5045492;28;20044;-86
2023/09/07 09:48:00;;;;;;;11.43;3.70;;;25.80;99.90;;;;;;5027389;28;20049;-87
2023/09/07 09:50:26;;;;;;;7.28;3.08;;;25.80;99.90;;;;;;5045986;28;20048;-87
2023/09/07 09:52:53;;;;;;;10.45;3.67;;;27.40;99.90;;;;;;5047653;28;20041;-87
2023/09/07 09:55:19;;;;;;;7.30;2.85;;;25.90;99.90;;;;;;5031629;28;20053;-87
2023/09/07 09:57:45;;;;;;;8.50;3.22;;;25.90;99.90;;;;;;5046194;28;20045;-88
2023/09/07 10:00:28;;;;;;;6.82;2.90;;;25.90;99.90;;;;;;5045593;28;20053;-86
2023/09/07 10:03:19;;;;;;;7.93;3.20;;;25.50;99.90;;;;;;5044272;28;20037;-88
2023/09/07 10:05:48;;;;;;;8.82;3.20;;;26.00;99.90;;;;;;5047583;28;20477;-87
2023/09/07 10:08:16;;;;;;;9.10;3.13;;;26.10;99.90;;;;;;5045643;28;20041;-88
2023/09/07 10:10:46;;;;;;;8.45;3.38;;;26.10;99.90;;;;;;5054698;28;20601;-87
2023/09/07 10:13:14;;;;;;;7.93;2.92;;;26.10;99.90;;;;;;5043866;28;20041;-87
2023/09/07 10:15:40;;;;;;;7.55;2.90;;;26.10;99.90;;;;;;5013671;28;20030;-86
2023/09/07 10:18:11;;;;;;;8.30;3.00;;;26.20;99.90;;;;;;5037572;28;20041;-87
2023/09/07 10:20:55;;;;;;;7.50;2.92;;;26.20;99.90;;;;;;5015287;28;20060;-88
2023/09/07 10:23:23;;;;;;;7.70;3.22;;;26.30;99.90;;;;;;5036621;28;20044;-86
2023/09/07 10:25:53;;;;;;;9.05;3.03;;;26.30;99.90;;;;;;5073893;28;20071;-88
2023/09/07 10:28:24;;;;;;;8.30;3.20;;;25.30;99.90;;;;;;5069316;28;20044;-86
2023/09/07 10:31:07;;;;;;;7.82;2.90;;;26.40;99.90;;;;;;5071720;28;20078;-87
2023/09/07 10:33:34;;;;;;;8.57;3.10;;;26.50;99.90;;;;;;5061108;28;20594;-87
2023/09/07 10:36:01;;;;;;;7.75;3.00;;;26.50;99.90;;;;;;5066500;28;20123;-87
2023/09/07 10:38:27;;;;;;;7.88;2.92;;;26.50;99.90;;;;;;5066208;28;20048;-87
2023/09/07 10:41:00;;;;;;;8.57;3.10;;;26.60;99.90;;;;;;5059948;28;20121;-87
2023/09/07 10:43:33;;;;;;;7.13;2.63;;;26.60;99.90;;;;;;5070556;28;20046;-87
2023/09/07 10:46:00;;;;;;;7.75;2.83;;;26.60;99.90;;;;;;5080552;28;20036;-86
2023/09/07 10:48:29;;;;;;;8.02;2.97;;;26.50;99.90;;;;;;5066913;28;20048;-86
2023/09/07 10:50:56;;;;;;;8.73;2.95;;;27.70;99.90;;;;;;5039022;28;20040;-87
2023/09/07 10:53:31;;;;;;;6.68;2.60;;;26.70;99.90;;;;;;5067478;28;20250;-86
2023/09/07 10:56:03;;;;;;;7.60;2.83;;;26.70;99.90;;;;;;5073427;28;20040;-87
2023/09/07 10:58:33;;;;;;;;;;;26.80;99.90;;;;;;5066386;28;20040;-87
2023/09/07 11:00:59;;;;;;;7.97;3.00;;;26.90;99.90;;;;;;5056408;28;20369;-86
2023/09/07 11:03:26;;;;;;;7.35;3.00;;;26.90;99.90;;;;;;5072805;28;20072;-87
2023/09/07 11:06:25;;;;;;;6.82;2.55;;;26.90;99.90;;;;;;5067599;28;22211;-87
2023/09/07 11:08:51;;;;;;;8.18;2.75;;;27.00;99.90;;;;;;5025758;28;20048;-87
2023/09/07 11:11:17;;;;;;;7.82;2.70;;;27.10;99.90;;;;;;5057392;28;20047;-86
2023/09/07 11:13:43;;;;;;;6.18;2.40;;;27.20;99.90;;;;;;5061750;28;20052;-87
2023/09/07 11:16:09;;;;;;;7.32;2.80;;;27.20;99.90;;;;;;5050458;28;20082;-87
2023/09/07 11:18:36;;;;;;;7.20;2.50;;;27.20;99.90;;;;;;5058842;28;20412;-87
2023/09/07 11:21:03;;;;;;;6.82;2.60;;;27.60;99.90;;;;;;5055561;28;20040;-86
2023/09/07 11:23:37;;;;;;;6.60;2.42;;;27.30;99.90;;;;;;5068438;28;20079;-87
2023/09/07 11:26:08;;;;;;;6.80;2.70;;;27.40;99.90;;;;;;5071764;28;20055;-86
2023/09/07 11:28:34;;;;;;;8.43;2.60;;;27.40;99.90;;;;;;5065917;28;20048;-86
2023/09/07 11:31:00;;;;;;;8.18;3.00;;;27.40;99.90;;;;;;5071476;28;20051;-87
2023/09/07 11:33:31;;;;;;;7.28;2.65;;;27.50;99.90;;;;;;5073139;28;20051;-86
2023/09/07 11:35:56;;;;;;;7.50;2.70;;;27.40;99.90;;;;;;5050245;28;20036;-88
2023/09/07 11:38:22;;;;;;;7.05;2.63;;;27.50;99.90;;;;;;5074235;28;20047;-88
2023/09/07 11:40:48;;;;;;;6.50;2.55;;;27.50;99.90;;;;;;5053273;28;20063;-86
2023/09/07 11:43:20;;;;;;;7.40;2.95;;;27.60;99.90;;;;;;5056724;28;20040;-87
2023/09/07 11:45:46;;;;;;;;;;;27.60;99.90;;;;;;5087738;28;20516;-87
2023/09/07 11:48:12;;;;;;;8.25;2.85;;;27.70;99.90;;;;;;5078544;28;19988;-87
2023/09/07 11:50:38;;;;;;;7.03;2.72;;;27.20;99.90;;;;;;5061055;28;20043;-87
2023/09/07 11:53:05;;;;;;;7.40;2.80;;;27.70;99.90;;;;;;5061953;28;20032;-87
2023/09/07 11:55:31;;;;;;;7.40;2.65;;;27.70;99.90;;;;;;5069101;28;20064;-88
2023/09/07 11:57:57;;;;;;;7.40;2.60;;;27.70;99.90;;;;;;5091734;28;20408;-87
2023/09/07 12:00:23;;;;;;;6.70;2.53;;;27.80;99.90;;;;;;5086961;28;20045;-88
2023/09/07 12:02:49;;;;;;;8.88;2.80;;;27.70;99.90;;;;;;5068010;28;20189;-87
2023/09/07 12:05:15;;;;;;;7.88;2.85;;;27.80;99.90;;;;;;5089704;28;20122;-86
2023/09/07 12:07:44;;;;;;;8.38;3.08;;;27.70;99.90;;;;;;5035271;28;20484;-87
2023/09/07 12:10:10;;;;;;;6.97;2.70;;;27.90;99.90;;;;;;5062601;28;20050;-87
2023/09/07 12:12:43;;;;;;;7.07;2.70;;;28.00;99.90;;;;;;5066016;28;20149;-85
2023/09/07 12:15:13;;;;;;;9.27;2.70;;;27.90;99.90;;;;;;5068946;28;20134;-87
2023/09/07 12:17:39;;;;;;;9.45;2.90;;;27.90;99.90;;;;;;5051141;28;20504;-86
2023/09/07 12:20:09;;;;;;;8.48;2.95;;;27.30;99.90;;;;;;5041391;28;20048;-86
2023/09/07 12:22:38;;;;;;;7.82;3.10;;;27.90;99.90;;;;;;5076081;28;20420;-87
2023/09/07 12:25:08;;;;;;;7.00;2.88;;;27.90;99.90;;;;;;5060356;28;20070;-86
2023/09/07 12:27:34;;;;;;;7.57;2.85;;;27.90;99.90;;;;;;5072715;28;20048;-86
2023/09/07 12:30:05;;;;;;;8.20;2.90;;;29.00;99.90;;;;;;5081216;28;20102;-86
2023/09/07 12:32:31;;;;;;;10.93;2.85;;;28.00;99.90;;;;;;5071501;28;20409;-86
2023/09/07 12:34:57;;;;;;;7.63;2.88;;;27.80;99.90;;;;;;5073698;28;20051;-87
2023/09/07 12:37:24;;;;;;;7.70;2.80;;;28.00;99.90;;;;;;5056352;28;20039;-87
2023/09/07 12:39:50;;;;;;;7.15;2.80;;;28.00;99.90;;;;;;5062871;28;20115;-86
2023/09/07 12:42:17;;;;;;;8.35;3.13;;;28.00;99.90;;;;;;5074872;28;20413;-86
2023/09/07 12:44:43;;;;;;;7.35;2.85;;;28.00;99.90;;;;;;5073364;28;20397;-86